sensor_id;sensor_type;location;lat;lon;timestamp;temperature;humidity
23233;DHT22;11785;49.500;8.288;2022-12-24T00:02:18;12.00;94.70
23233;DHT22;11785;49.500;8.288;2022-12-24T00:04:43;12.00;94.40
23233;DHT22;11785;49.500;8.288;2022-12-24T00:07:09;11.90;94.50
23233;DHT22;11785;49.500;8.288;2022-12-24T00:09:34;11.90;94.70
23233;DHT22;11785;49.500;8.288;2022-12-24T00:12:00;11.70;95.30
23233;DHT22;11785;49.500;8.288;2022-12-24T00:14:25;11.70;94.80
23233;DHT22;11785;49.500;8.288;2022-12-24T00:16:50;11.70;94.80
23233;DHT22;11785;49.500;8.288;2022-12-24T00:19:16;11.60;95.00
23233;DHT22;11785;49.500;8.288;2022-12-24T00:21:41;11.60;95.00
23233;DHT22;11785;49.500;8.288;2022-12-24T00:24:07;11.50;95.30
23233;DHT22;11785;49.500;8.288;2022-12-24T00:26:32;11.40;95.60
23233;DHT22;11785;49.500;8.288;2022-12-24T00:28:58;11.40;95.30
23233;DHT22;11785;49.500;8.288;2022-12-24T00:31:24;11.30;95.80
23233;DHT22;11785;49.500;8.288;2022-12-24T00:33:50;11.30;95.50
23233;DHT22;11785;49.500;8.288;2022-12-24T00:36:15;11.30;95.40
23233;DHT22;11785;49.500;8.288;2022-12-24T00:38:41;11.20;95.90
23233;DHT22;11785;49.500;8.288;2022-12-24T00:41:07;11.10;96.10
23233;DHT22;11785;49.500;8.288;2022-12-24T00:43:58;11.10;95.90
23233;DHT22;11785;49.500;8.288;2022-12-24T00:46:25;11.10;95.40
23233;DHT22;11785;49.500;8.288;2022-12-24T00:48:50;11.10;95.40
23233;DHT22;11785;49.500;8.288;2022-12-24T00:51:16;11.10;95.50
23233;DHT22;11785;49.500;8.288;2022-12-24T00:53:42;11.20;94.80
23233;DHT22;11785;49.500;8.288;2022-12-24T00:56:07;11.50;93.30
23233;DHT22;11785;49.500;8.288;2022-12-24T00:58:33;11.50;93.40
23233;DHT22;11785;49.500;8.288;2022-12-24T01:00:58;11.30;94.10
23233;DHT22;11785;49.500;8.288;2022-12-24T01:03:24;11.30;94.20
23233;DHT22;11785;49.500;8.288;2022-12-24T01:06:02;11.20;94.50
23233;DHT22;11785;49.500;8.288;2022-12-24T01:08:28;11.10;94.80
23233;DHT22;11785;49.500;8.288;2022-12-24T01:10:53;11.20;94.60
23233;DHT22;11785;49.500;8.288;2022-12-24T01:13:18;11.20;94.30
23233;DHT22;11785;49.500;8.288;2022-12-24T01:15:44;11.10;94.90
23233;DHT22;11785;49.500;8.288;2022-12-24T01:18:09;10.90;95.90
23233;DHT22;11785;49.500;8.288;2022-12-24T01:20:35;11.10;95.50
23233;DHT22;11785;49.500;8.288;2022-12-24T01:23:00;11.00;95.80
23233;DHT22;11785;49.500;8.288;2022-12-24T01:25:26;10.90;96.20
23233;DHT22;11785;49.500;8.288;2022-12-24T01:27:51;10.80;96.80
23233;DHT22;11785;49.500;8.288;2022-12-24T01:30:17;11.00;96.40
23233;DHT22;11785;49.500;8.288;2022-12-24T01:32:42;11.10;96.10
23233;DHT22;11785;49.500;8.288;2022-12-24T01:35:08;11.10;96.20
23233;DHT22;11785;49.500;8.288;2022-12-24T01:37:34;11.20;95.80
23233;DHT22;11785;49.500;8.288;2022-12-24T01:40:00;11.20;95.60
23233;DHT22;11785;49.500;8.288;2022-12-24T01:42:45;11.20;95.40
23233;DHT22;11785;49.500;8.288;2022-12-24T01:48:02;10.90;96.70
23233;DHT22;11785;49.500;8.288;2022-12-24T01:50:27;10.80;97.30
23233;DHT22;11785;49.500;8.288;2022-12-24T01:52:53;10.80;96.90
23233;DHT22;11785;49.500;8.288;2022-12-24T01:55:18;11.00;96.20
23233;DHT22;11785;49.500;8.288;2022-12-24T01:57:45;11.00;96.10
23233;DHT22;11785;49.500;8.288;2022-12-24T02:00:13;10.90;96.60
23233;DHT22;11785;49.500;8.288;2022-12-24T02:02:39;11.10;95.60
23233;DHT22;11785;49.500;8.288;2022-12-24T02:05:06;11.30;94.90
23233;DHT22;11785;49.500;8.288;2022-12-24T02:07:34;11.30;94.80
23233;DHT22;11785;49.500;8.288;2022-12-24T02:10:00;11.20;95.20
23233;DHT22;11785;49.500;8.288;2022-12-24T02:12:26;11.30;94.90
23233;DHT22;11785;49.500;8.288;2022-12-24T02:14:52;11.40;94.60
23233;DHT22;11785;49.500;8.288;2022-12-24T02:17:35;11.40;94.70
23233;DHT22;11785;49.500;8.288;2022-12-24T02:33:01;11.20;95.00
23233;DHT22;11785;49.500;8.288;2022-12-24T02:38:43;11.20;95.00
23233;DHT22;11785;49.500;8.288;2022-12-24T02:41:13;11.30;94.60
23233;DHT22;11785;49.500;8.288;2022-12-24T02:43:40;11.20;95.00
23233;DHT22;11785;49.500;8.288;2022-12-24T02:46:08;11.10;95.40
23233;DHT22;11785;49.500;8.288;2022-12-24T02:48:36;11.10;95.60
23233;DHT22;11785;49.500;8.288;2022-12-24T02:53:28;10.80;96.70
23233;DHT22;11785;49.500;8.288;2022-12-24T03:03:48;10.70;97.20
23233;DHT22;11785;49.500;8.288;2022-12-24T03:08:59;10.90;96.50
23233;DHT22;11785;49.500;8.288;2022-12-24T03:11:25;10.90;96.50
23233;DHT22;11785;49.500;8.288;2022-12-24T03:13:51;10.90;96.60
23233;DHT22;11785;49.500;8.288;2022-12-24T03:16:20;10.90;96.60
23233;DHT22;11785;49.500;8.288;2022-12-24T03:18:46;11.00;96.30
23233;DHT22;11785;49.500;8.288;2022-12-24T03:21:15;11.00;96.40
23233;DHT22;11785;49.500;8.288;2022-12-24T03:23:42;10.90;96.80
23233;DHT22;11785;49.500;8.288;2022-12-24T03:26:08;10.90;96.80
23233;DHT22;11785;49.500;8.288;2022-12-24T03:28:36;10.90;96.90
23233;DHT22;11785;49.500;8.288;2022-12-24T03:31:02;10.90;97.00
23233;DHT22;11785;49.500;8.288;2022-12-24T03:33:29;11.00;96.70
23233;DHT22;11785;49.500;8.288;2022-12-24T03:35:55;11.00;96.70
23233;DHT22;11785;49.500;8.288;2022-12-24T03:38:20;11.10;96.50
23233;DHT22;11785;49.500;8.288;2022-12-24T03:40:46;11.10;96.50
23233;DHT22;11785;49.500;8.288;2022-12-24T03:43:11;11.10;96.40
23233;DHT22;11785;49.500;8.288;2022-12-24T03:45:36;11.20;96.10
23233;DHT22;11785;49.500;8.288;2022-12-24T03:48:02;11.20;95.90
23233;DHT22;11785;49.500;8.288;2022-12-24T03:50:28;11.30;95.70
23233;DHT22;11785;49.500;8.288;2022-12-24T03:52:53;11.30;95.60
23233;DHT22;11785;49.500;8.288;2022-12-24T03:55:19;11.30;95.60
23233;DHT22;11785;49.500;8.288;2022-12-24T03:57:44;11.40;95.10
23233;DHT22;11785;49.500;8.288;2022-12-24T04:00:10;11.40;95.10
23233;DHT22;11785;49.500;8.288;2022-12-24T04:02:36;11.40;95.10
23233;DHT22;11785;49.500;8.288;2022-12-24T04:05:01;11.40;95.10
23233;DHT22;11785;49.500;8.288;2022-12-24T04:07:26;11.40;95.20
23233;DHT22;11785;49.500;8.288;2022-12-24T04:09:52;11.40;95.30
23233;DHT22;11785;49.500;8.288;2022-12-24T04:12:17;11.30;96.00
23233;DHT22;11785;49.500;8.288;2022-12-24T04:14:43;11.30;95.90
23233;DHT22;11785;49.500;8.288;2022-12-24T04:17:08;11.30;96.00
23233;DHT22;11785;49.500;8.288;2022-12-24T04:19:34;11.30;95.90
23233;DHT22;11785;49.500;8.288;2022-12-24T04:21:59;11.30;96.00
23233;DHT22;11785;49.500;8.288;2022-12-24T04:24:25;11.20;96.30
23233;DHT22;11785;49.500;8.288;2022-12-24T04:26:50;11.20;96.40
23233;DHT22;11785;49.500;8.288;2022-12-24T04:29:16;11.20;96.50
23233;DHT22;11785;49.500;8.288;2022-12-24T04:31:41;11.20;96.60
23233;DHT22;11785;49.500;8.288;2022-12-24T04:34:07;11.20;96.70
23233;DHT22;11785;49.500;8.288;2022-12-24T04:36:32;11.10;97.00
23233;DHT22;11785;49.500;8.288;2022-12-24T04:38:58;11.20;96.70
23233;DHT22;11785;49.500;8.288;2022-12-24T04:41:23;11.10;97.00
23233;DHT22;11785;49.500;8.288;2022-12-24T04:43:49;11.10;97.10
23233;DHT22;11785;49.500;8.288;2022-12-24T04:46:16;11.10;97.20
23233;DHT22;11785;49.500;8.288;2022-12-24T04:48:43;11.10;97.10
23233;DHT22;11785;49.500;8.288;2022-12-24T04:51:09;11.10;97.20
23233;DHT22;11785;49.500;8.288;2022-12-24T04:53:34;11.20;96.90
23233;DHT22;11785;49.500;8.288;2022-12-24T04:56:00;11.10;97.30
23233;DHT22;11785;49.500;8.288;2022-12-24T04:58:26;11.10;97.30
23233;DHT22;11785;49.500;8.288;2022-12-24T05:00:52;11.10;97.40
23233;DHT22;11785;49.500;8.288;2022-12-24T05:03:17;11.10;97.40
23233;DHT22;11785;49.500;8.288;2022-12-24T05:05:43;11.00;97.70
23233;DHT22;11785;49.500;8.288;2022-12-24T05:08:08;11.10;97.40
23233;DHT22;11785;49.500;8.288;2022-12-24T05:10:34;11.10;97.40
23233;DHT22;11785;49.500;8.288;2022-12-24T05:12:59;11.10;97.30
23233;DHT22;11785;49.500;8.288;2022-12-24T05:15:25;11.10;97.20
23233;DHT22;11785;49.500;8.288;2022-12-24T05:17:50;11.10;97.30
23233;DHT22;11785;49.500;8.288;2022-12-24T05:20:16;11.00;97.90
23233;DHT22;11785;49.500;8.288;2022-12-24T05:22:41;10.90;98.00
23233;DHT22;11785;49.500;8.288;2022-12-24T05:25:31;10.90;98.10
23233;DHT22;11785;49.500;8.288;2022-12-24T05:28:16;10.80;98.30
23233;DHT22;11785;49.500;8.288;2022-12-24T05:30:42;10.60;99.00
23233;DHT22;11785;49.500;8.288;2022-12-24T05:33:07;10.70;98.90
23233;DHT22;11785;49.500;8.288;2022-12-24T05:35:33;10.60;99.10
23233;DHT22;11785;49.500;8.288;2022-12-24T05:37:58;10.60;99.20
23233;DHT22;11785;49.500;8.288;2022-12-24T05:40:24;10.70;98.80
23233;DHT22;11785;49.500;8.288;2022-12-24T05:42:49;10.80;98.40
23233;DHT22;11785;49.500;8.288;2022-12-24T05:45:15;10.90;98.00
23233;DHT22;11785;49.500;8.288;2022-12-24T05:47:40;11.00;97.50
23233;DHT22;11785;49.500;8.288;2022-12-24T05:50:06;11.00;97.50
23233;DHT22;11785;49.500;8.288;2022-12-24T05:52:32;11.00;97.50
23233;DHT22;11785;49.500;8.288;2022-12-24T05:54:57;11.10;97.10
23233;DHT22;11785;49.500;8.288;2022-12-24T05:57:23;11.20;96.60
23233;DHT22;11785;49.500;8.288;2022-12-24T05:59:48;11.10;96.90
23233;DHT22;11785;49.500;8.288;2022-12-24T06:02:13;11.10;97.00
23233;DHT22;11785;49.500;8.288;2022-12-24T06:04:39;11.00;97.30
23233;DHT22;11785;49.500;8.288;2022-12-24T06:07:04;11.00;97.40
23233;DHT22;11785;49.500;8.288;2022-12-24T06:09:30;10.90;97.80
23233;DHT22;11785;49.500;8.288;2022-12-24T06:11:55;10.80;98.20
23233;DHT22;11785;49.500;8.288;2022-12-24T06:14:21;10.80;98.30
23233;DHT22;11785;49.500;8.288;2022-12-24T06:16:46;10.80;98.30
23233;DHT22;11785;49.500;8.288;2022-12-24T06:19:12;10.70;98.60
23233;DHT22;11785;49.500;8.288;2022-12-24T06:21:37;10.70;98.70
23233;DHT22;11785;49.500;8.288;2022-12-24T06:24:03;10.80;98.40
23233;DHT22;11785;49.500;8.288;2022-12-24T06:26:28;10.90;97.90
23233;DHT22;11785;49.500;8.288;2022-12-24T06:28:54;11.00;97.40
23233;DHT22;11785;49.500;8.288;2022-12-24T06:31:20;10.90;97.70
23233;DHT22;11785;49.500;8.288;2022-12-24T06:33:46;10.90;97.70
23233;DHT22;11785;49.500;8.288;2022-12-24T06:36:15;10.80;98.10
23233;DHT22;11785;49.500;8.288;2022-12-24T06:38:41;10.80;98.10
23233;DHT22;11785;49.500;8.288;2022-12-24T06:41:07;10.80;98.30
23233;DHT22;11785;49.500;8.288;2022-12-24T06:43:32;10.80;98.30
23233;DHT22;11785;49.500;8.288;2022-12-24T06:46:01;11.10;96.90
23233;DHT22;11785;49.500;8.288;2022-12-24T06:48:27;11.20;96.40
23233;DHT22;11785;49.500;8.288;2022-12-24T06:50:52;11.20;96.40
23233;DHT22;11785;49.500;8.288;2022-12-24T06:53:18;11.20;96.50
23233;DHT22;11785;49.500;8.288;2022-12-24T06:55:43;11.10;96.90
23233;DHT22;11785;49.500;8.288;2022-12-24T06:58:09;11.00;97.20
23233;DHT22;11785;49.500;8.288;2022-12-24T07:00:34;11.00;97.20
23233;DHT22;11785;49.500;8.288;2022-12-24T07:03:00;11.00;97.20
23233;DHT22;11785;49.500;8.288;2022-12-24T07:05:25;11.00;97.20
23233;DHT22;11785;49.500;8.288;2022-12-24T07:07:51;11.00;97.10
23233;DHT22;11785;49.500;8.288;2022-12-24T07:10:17;10.90;97.40
23233;DHT22;11785;49.500;8.288;2022-12-24T07:12:43;10.90;97.60
23233;DHT22;11785;49.500;8.288;2022-12-24T07:15:09;10.80;97.90
23233;DHT22;11785;49.500;8.288;2022-12-24T07:17:35;10.80;97.90
23233;DHT22;11785;49.500;8.288;2022-12-24T07:20:00;10.80;98.00
23233;DHT22;11785;49.500;8.288;2022-12-24T07:22:26;10.90;97.40
23233;DHT22;11785;49.500;8.288;2022-12-24T07:24:51;11.00;97.10
23233;DHT22;11785;49.500;8.288;2022-12-24T07:27:17;11.00;97.10
23233;DHT22;11785;49.500;8.288;2022-12-24T07:29:42;11.00;96.90
23233;DHT22;11785;49.500;8.288;2022-12-24T07:32:08;10.90;97.30
23233;DHT22;11785;49.500;8.288;2022-12-24T07:34:33;11.00;97.10
23233;DHT22;11785;49.500;8.288;2022-12-24T07:36:59;11.10;96.60
23233;DHT22;11785;49.500;8.288;2022-12-24T07:39:24;11.20;96.10
23233;DHT22;11785;49.500;8.288;2022-12-24T07:41:50;11.20;96.10
23233;DHT22;11785;49.500;8.288;2022-12-24T07:44:15;11.20;96.10
23233;DHT22;11785;49.500;8.288;2022-12-24T07:46:41;11.20;96.10
23233;DHT22;11785;49.500;8.288;2022-12-24T07:49:07;11.20;96.10
23233;DHT22;11785;49.500;8.288;2022-12-24T07:51:32;11.20;96.10
23233;DHT22;11785;49.500;8.288;2022-12-24T07:53:58;11.20;96.00
23233;DHT22;11785;49.500;8.288;2022-12-24T07:56:24;11.30;95.70
23233;DHT22;11785;49.500;8.288;2022-12-24T07:58:50;11.30;95.70
23233;DHT22;11785;49.500;8.288;2022-12-24T08:01:15;11.30;95.70
23233;DHT22;11785;49.500;8.288;2022-12-24T08:03:41;11.30;95.70
23233;DHT22;11785;49.500;8.288;2022-12-24T08:06:07;11.30;95.70
23233;DHT22;11785;49.500;8.288;2022-12-24T08:08:32;11.40;95.30
23233;DHT22;11785;49.500;8.288;2022-12-24T08:11:01;11.40;95.20
23233;DHT22;11785;49.500;8.288;2022-12-24T08:13:27;11.40;95.10
23233;DHT22;11785;49.500;8.288;2022-12-24T08:15:52;11.40;95.20
23233;DHT22;11785;49.500;8.288;2022-12-24T08:18:18;11.40;95.20
23233;DHT22;11785;49.500;8.288;2022-12-24T08:20:43;11.50;95.00
23233;DHT22;11785;49.500;8.288;2022-12-24T08:23:09;11.50;95.00
23233;DHT22;11785;49.500;8.288;2022-12-24T08:25:35;11.50;94.90
23233;DHT22;11785;49.500;8.288;2022-12-24T08:28:00;11.50;94.90
23233;DHT22;11785;49.500;8.288;2022-12-24T08:30:26;11.50;94.90
23233;DHT22;11785;49.500;8.288;2022-12-24T08:32:51;11.50;94.80
23233;DHT22;11785;49.500;8.288;2022-12-24T08:35:19;11.50;94.90
23233;DHT22;11785;49.500;8.288;2022-12-24T08:37:44;11.50;95.10
23233;DHT22;11785;49.500;8.288;2022-12-24T08:40:10;11.50;94.90
23233;DHT22;11785;49.500;8.288;2022-12-24T08:42:35;11.60;94.60
23233;DHT22;11785;49.500;8.288;2022-12-24T08:45:01;11.70;94.30
23233;DHT22;11785;49.500;8.288;2022-12-24T08:47:26;11.70;93.90
23233;DHT22;11785;49.500;8.288;2022-12-24T08:49:52;11.70;94.00
23233;DHT22;11785;49.500;8.288;2022-12-24T08:52:17;11.80;93.60
23233;DHT22;11785;49.500;8.288;2022-12-24T08:54:43;11.80;93.60
23233;DHT22;11785;49.500;8.288;2022-12-24T08:57:08;11.80;94.00
23233;DHT22;11785;49.500;8.288;2022-12-24T08:59:33;11.80;93.80
23233;DHT22;11785;49.500;8.288;2022-12-24T09:01:59;11.80;93.60
23233;DHT22;11785;49.500;8.288;2022-12-24T09:04:25;11.90;93.30
23233;DHT22;11785;49.500;8.288;2022-12-24T09:06:51;12.00;92.80
23233;DHT22;11785;49.500;8.288;2022-12-24T09:09:16;12.10;92.40
23233;DHT22;11785;49.500;8.288;2022-12-24T09:11:42;12.20;92.00
23233;DHT22;11785;49.500;8.288;2022-12-24T09:14:07;12.30;91.70
23233;DHT22;11785;49.500;8.288;2022-12-24T09:16:33;12.40;91.30
23233;DHT22;11785;49.500;8.288;2022-12-24T09:18:58;12.50;90.90
23233;DHT22;11785;49.500;8.288;2022-12-24T09:21:23;12.60;90.30
23233;DHT22;11785;49.500;8.288;2022-12-24T09:23:49;12.70;90.10
23233;DHT22;11785;49.500;8.288;2022-12-24T09:26:16;12.60;90.40
23233;DHT22;11785;49.500;8.288;2022-12-24T09:28:41;12.60;90.40
23233;DHT22;11785;49.500;8.288;2022-12-24T09:31:08;12.50;90.70
23233;DHT22;11785;49.500;8.288;2022-12-24T09:33:35;12.60;90.70
23233;DHT22;11785;49.500;8.288;2022-12-24T09:36:01;12.80;89.30
23233;DHT22;11785;49.500;8.288;2022-12-24T09:38:26;12.90;88.40
23233;DHT22;11785;49.500;8.288;2022-12-24T09:40:52;12.90;88.60
23233;DHT22;11785;49.500;8.288;2022-12-24T09:43:19;12.80;89.10
23233;DHT22;11785;49.500;8.288;2022-12-24T09:48:22;12.90;88.90
23233;DHT22;11785;49.500;8.288;2022-12-24T09:50:52;12.90;88.90
23233;DHT22;11785;49.500;8.288;2022-12-24T09:56:01;13.00;86.80
23233;DHT22;11785;49.500;8.288;2022-12-24T09:58:35;13.10;85.90
23233;DHT22;11785;49.500;8.288;2022-12-24T10:01:01;13.00;86.80
23233;DHT22;11785;49.500;8.288;2022-12-24T10:03:27;13.00;86.20
23233;DHT22;11785;49.500;8.288;2022-12-24T10:08:27;13.00;86.20
23233;DHT22;11785;49.500;8.288;2022-12-24T10:10:54;13.00;85.80
23233;DHT22;11785;49.500;8.288;2022-12-24T10:15:55;13.00;86.20
23233;DHT22;11785;49.500;8.288;2022-12-24T10:18:32;13.00;86.10
23233;DHT22;11785;49.500;8.288;2022-12-24T10:26:24;13.20;84.00
23233;DHT22;11785;49.500;8.288;2022-12-24T10:28:44;13.30;83.50
23233;DHT22;11785;49.500;8.288;2022-12-24T10:31:11;13.40;82.90
23233;DHT22;11785;49.500;8.288;2022-12-24T10:33:38;13.40;81.90
23233;DHT22;11785;49.500;8.288;2022-12-24T10:36:05;13.40;81.90
23233;DHT22;11785;49.500;8.288;2022-12-24T10:38:31;13.30;82.60
23233;DHT22;11785;49.500;8.288;2022-12-24T10:40:57;13.30;83.30
23233;DHT22;11785;49.500;8.288;2022-12-24T10:43:24;13.30;82.90
23233;DHT22;11785;49.500;8.288;2022-12-24T10:45:54;13.20;84.10
23233;DHT22;11785;49.500;8.288;2022-12-24T10:48:28;13.10;84.70
23233;DHT22;11785;49.500;8.288;2022-12-24T10:51:04;13.00;85.40
23233;DHT22;11785;49.500;8.288;2022-12-24T10:53:43;13.00;85.90
23233;DHT22;11785;49.500;8.288;2022-12-24T10:56:10;13.00;84.80
23233;DHT22;11785;49.500;8.288;2022-12-24T10:58:35;13.00;85.00
23233;DHT22;11785;49.500;8.288;2022-12-24T11:01:01;13.10;84.10
23233;DHT22;11785;49.500;8.288;2022-12-24T11:03:28;13.20;83.50
23233;DHT22;11785;49.500;8.288;2022-12-24T11:05:58;13.20;83.60
23233;DHT22;11785;49.500;8.288;2022-12-24T11:08:24;13.20;83.40
23233;DHT22;11785;49.500;8.288;2022-12-24T11:10:54;13.20;83.60
23233;DHT22;11785;49.500;8.288;2022-12-24T11:13:27;13.20;83.80
23233;DHT22;11785;49.500;8.288;2022-12-24T11:16:16;13.20;83.90
23233;DHT22;11785;49.500;8.288;2022-12-24T11:18:49;13.20;83.50
23233;DHT22;11785;49.500;8.288;2022-12-24T11:23:50;13.20;83.70
23233;DHT22;11785;49.500;8.288;2022-12-24T11:26:20;13.20;83.00
23233;DHT22;11785;49.500;8.288;2022-12-24T11:28:45;13.30;82.80
23233;DHT22;11785;49.500;8.288;2022-12-24T11:31:27;13.30;82.70
23233;DHT22;11785;49.500;8.288;2022-12-24T11:33:53;13.40;81.80
23233;DHT22;11785;49.500;8.288;2022-12-24T11:36:20;13.30;82.50
23233;DHT22;11785;49.500;8.288;2022-12-24T11:38:53;13.40;82.50
23233;DHT22;11785;49.500;8.288;2022-12-24T11:41:19;13.50;81.50
23233;DHT22;11785;49.500;8.288;2022-12-24T11:43:46;13.60;80.30
23233;DHT22;11785;49.500;8.288;2022-12-24T11:46:14;14.10;76.40
23233;DHT22;11785;49.500;8.288;2022-12-24T11:48:40;14.50;73.40
23233;DHT22;11785;49.500;8.288;2022-12-24T11:51:06;14.80;70.90
23233;DHT22;11785;49.500;8.288;2022-12-24T11:53:45;14.70;71.10
23233;DHT22;11785;49.500;8.288;2022-12-24T11:56:14;15.10;67.50
23233;DHT22;11785;49.500;8.288;2022-12-24T11:58:49;15.00;67.40
23233;DHT22;11785;49.500;8.288;2022-12-24T12:01:23;15.20;67.00
23233;DHT22;11785;49.500;8.288;2022-12-24T12:03:53;15.10;66.90
23233;DHT22;11785;49.500;8.288;2022-12-24T12:08:52;14.60;71.70
23233;DHT22;11785;49.500;8.288;2022-12-24T12:11:20;14.70;70.70
23233;DHT22;11785;49.500;8.288;2022-12-24T12:13:46;15.30;64.70
23233;DHT22;11785;49.500;8.288;2022-12-24T12:19:17;16.00;59.90
23233;DHT22;11785;49.500;8.288;2022-12-24T12:21:37;16.10;59.90
23233;DHT22;11785;49.500;8.288;2022-12-24T12:24:06;16.20;59.90
23233;DHT22;11785;49.500;8.288;2022-12-24T12:26:36;16.40;59.80
23233;DHT22;11785;49.500;8.288;2022-12-24T12:29:09;16.00;59.90
23233;DHT22;11785;49.500;8.288;2022-12-24T12:31:43;15.60;60.50
23233;DHT22;11785;49.500;8.288;2022-12-24T12:36:44;16.50;59.70
23233;DHT22;11785;49.500;8.288;2022-12-24T12:39:11;16.60;59.70
23233;DHT22;11785;49.500;8.288;2022-12-24T12:47:12;14.30;72.00
23233;DHT22;11785;49.500;8.288;2022-12-24T12:57:22;13.60;79.10
23233;DHT22;11785;49.500;8.288;2022-12-24T12:59:53;13.40;81.70
23233;DHT22;11785;49.500;8.288;2022-12-24T13:02:40;13.30;83.30
23233;DHT22;11785;49.500;8.288;2022-12-24T13:08:00;13.10;85.00
23233;DHT22;11785;49.500;8.288;2022-12-24T13:10:44;13.20;85.00
23233;DHT22;11785;49.500;8.288;2022-12-24T13:16:00;13.10;86.00
23233;DHT22;11785;49.500;8.288;2022-12-24T13:18:36;13.00;87.10
23233;DHT22;11785;49.500;8.288;2022-12-24T13:21:11;13.00;87.80
23233;DHT22;11785;49.500;8.288;2022-12-24T13:23:39;12.90;88.90
23233;DHT22;11785;49.500;8.288;2022-12-24T13:26:08;12.80;90.00
23233;DHT22;11785;49.500;8.288;2022-12-24T13:28:35;12.80;90.10
23233;DHT22;11785;49.500;8.288;2022-12-24T13:36:02;12.70;90.50
23233;DHT22;11785;49.500;8.288;2022-12-24T13:40:54;12.70;90.60
23233;DHT22;11785;49.500;8.288;2022-12-24T13:43:19;12.70;90.60
23233;DHT22;11785;49.500;8.288;2022-12-24T13:45:46;12.70;90.70
23233;DHT22;11785;49.500;8.288;2022-12-24T13:48:15;12.70;90.50
23233;DHT22;11785;49.500;8.288;2022-12-24T13:50:43;12.70;90.60
23233;DHT22;11785;49.500;8.288;2022-12-24T13:55:51;12.60;90.90
23233;DHT22;11785;49.500;8.288;2022-12-24T13:58:18;12.50;91.20
23233;DHT22;11785;49.500;8.288;2022-12-24T14:03:22;12.40;91.90
23233;DHT22;11785;49.500;8.288;2022-12-24T14:05:51;12.30;92.40
23233;DHT22;11785;49.500;8.288;2022-12-24T14:11:02;12.30;92.60
23233;DHT22;11785;49.500;8.288;2022-12-24T14:18:30;12.60;91.60
23233;DHT22;11785;49.500;8.288;2022-12-24T14:20:58;12.70;91.20
23233;DHT22;11785;49.500;8.288;2022-12-24T14:23:43;12.60;91.60
23233;DHT22;11785;49.500;8.288;2022-12-24T14:26:16;12.60;91.80
23233;DHT22;11785;49.500;8.288;2022-12-24T14:28:42;12.70;91.50
23233;DHT22;11785;49.500;8.288;2022-12-24T14:31:12;12.80;91.10
23233;DHT22;11785;49.500;8.288;2022-12-24T14:33:38;13.00;90.20
23233;DHT22;11785;49.500;8.288;2022-12-24T14:36:04;13.00;90.00
23233;DHT22;11785;49.500;8.288;2022-12-24T14:38:30;12.90;90.40
23233;DHT22;11785;49.500;8.288;2022-12-24T14:41:12;12.70;91.10
23233;DHT22;11785;49.500;8.288;2022-12-24T14:44:01;12.50;91.90
23233;DHT22;11785;49.500;8.288;2022-12-24T14:49:00;12.20;93.30
23233;DHT22;11785;49.500;8.288;2022-12-24T14:51:34;12.10;93.60
23233;DHT22;11785;49.500;8.288;2022-12-24T14:56:44;12.10;93.90
23233;DHT22;11785;49.500;8.288;2022-12-24T14:59:17;12.10;93.80
23233;DHT22;11785;49.500;8.288;2022-12-24T15:01:42;12.10;93.80
23233;DHT22;11785;49.500;8.288;2022-12-24T15:06:34;12.00;94.10
23233;DHT22;11785;49.500;8.288;2022-12-24T15:09:01;11.90;94.40
23233;DHT22;11785;49.500;8.288;2022-12-24T15:11:26;11.80;94.80
23233;DHT22;11785;49.500;8.288;2022-12-24T15:13:56;11.70;95.20
23233;DHT22;11785;49.500;8.288;2022-12-24T15:16:32;11.60;95.60
23233;DHT22;11785;49.500;8.288;2022-12-24T15:19:00;11.60;95.70
23233;DHT22;11785;49.500;8.288;2022-12-24T15:21:30;11.50;96.00
23233;DHT22;11785;49.500;8.288;2022-12-24T15:23:56;11.50;96.10
23233;DHT22;11785;49.500;8.288;2022-12-24T15:26:26;11.50;96.20
23233;DHT22;11785;49.500;8.288;2022-12-24T15:28:53;11.40;96.40
23233;DHT22;11785;49.500;8.288;2022-12-24T15:31:19;11.40;96.50
23233;DHT22;11785;49.500;8.288;2022-12-24T15:33:45;11.30;97.10
23233;DHT22;11785;49.500;8.288;2022-12-24T15:36:12;11.20;97.20
23233;DHT22;11785;49.500;8.288;2022-12-24T15:38:44;11.10;97.70
23233;DHT22;11785;49.500;8.288;2022-12-24T15:41:15;11.00;98.30
23233;DHT22;11785;49.500;8.288;2022-12-24T15:43:41;10.90;99.10
23233;DHT22;11785;49.500;8.288;2022-12-24T15:46:08;10.80;99.40
23233;DHT22;11785;49.500;8.288;2022-12-24T15:48:34;10.80;99.70
23233;DHT22;11785;49.500;8.288;2022-12-24T15:51:02;10.80;99.90
23233;DHT22;11785;49.500;8.288;2022-12-24T15:53:33;10.70;99.90
23233;DHT22;11785;49.500;8.288;2022-12-24T15:58:29;10.70;99.90
23233;DHT22;11785;49.500;8.288;2022-12-24T16:03:30;10.60;99.90
23233;DHT22;11785;49.500;8.288;2022-12-24T16:05:59;10.60;99.90
23233;DHT22;11785;49.500;8.288;2022-12-24T16:08:27;10.60;99.90
23233;DHT22;11785;49.500;8.288;2022-12-24T16:13:52;10.60;99.90
23233;DHT22;11785;49.500;8.288;2022-12-24T16:16:28;10.50;99.90
23233;DHT22;11785;49.500;8.288;2022-12-24T16:18:54;10.50;99.90
23233;DHT22;11785;49.500;8.288;2022-12-24T16:21:34;10.40;99.90
23233;DHT22;11785;49.500;8.288;2022-12-24T16:24:05;10.40;99.90
23233;DHT22;11785;49.500;8.288;2022-12-24T16:26:34;10.30;99.90
23233;DHT22;11785;49.500;8.288;2022-12-24T16:28:59;10.40;99.90
23233;DHT22;11785;49.500;8.288;2022-12-24T16:31:32;10.40;99.90
23233;DHT22;11785;49.500;8.288;2022-12-24T16:33:58;10.30;99.90
23233;DHT22;11785;49.500;8.288;2022-12-24T16:36:24;10.30;99.90
23233;DHT22;11785;49.500;8.288;2022-12-24T16:38:50;10.20;99.90
23233;DHT22;11785;49.500;8.288;2022-12-24T16:41:34;10.20;99.90
23233;DHT22;11785;49.500;8.288;2022-12-24T16:44:20;10.20;99.90
23233;DHT22;11785;49.500;8.288;2022-12-24T16:46:45;10.20;99.90
23233;DHT22;11785;49.500;8.288;2022-12-24T16:49:15;10.30;99.90
23233;DHT22;11785;49.500;8.288;2022-12-24T16:51:40;10.40;99.90
23233;DHT22;11785;49.500;8.288;2022-12-24T16:54:06;10.30;99.90
23233;DHT22;11785;49.500;8.288;2022-12-24T16:56:33;10.30;99.90
23233;DHT22;11785;49.500;8.288;2022-12-24T16:58:59;10.30;99.90
23233;DHT22;11785;49.500;8.288;2022-12-24T17:01:25;10.30;99.90
23233;DHT22;11785;49.500;8.288;2022-12-24T17:03:50;10.30;99.90
23233;DHT22;11785;49.500;8.288;2022-12-24T17:06:16;10.40;99.90
23233;DHT22;11785;49.500;8.288;2022-12-24T17:08:41;10.50;99.90
23233;DHT22;11785;49.500;8.288;2022-12-24T17:11:06;10.50;99.90
23233;DHT22;11785;49.500;8.288;2022-12-24T17:13:32;10.50;99.90
23233;DHT22;11785;49.500;8.288;2022-12-24T17:15:59;10.50;99.90
23233;DHT22;11785;49.500;8.288;2022-12-24T17:18:24;10.50;99.90
23233;DHT22;11785;49.500;8.288;2022-12-24T17:20:59;10.40;99.90
23233;DHT22;11785;49.500;8.288;2022-12-24T17:23:25;10.40;99.90
23233;DHT22;11785;49.500;8.288;2022-12-24T17:28:19;10.40;99.90